Bert Mooney Airport
KBTM : now visible

Airfield :











YOU CAN JOIN US ON...

 
LOGIN :

Register | Disclaimer

   EN    FR    IT 

 









Legend :    VFR   Marginal VFR   IFR   Intensive IFR   Very Intensive IFR
Visi :
Ceiling :
>= 8 km
>= 3000ft
5 to 8 km
1000 to 3000 ft
1500m to 5 km
500 to 1000 ft
800 to 1500m
200 to 500 ft
< 800m
< 200 ft
Symbols :   Thunderstorms  Fog  Heavy snow  Heavy precipitations  Wind > 20 kt







- Airport Elevation : 5550 ft
- IATA code : BTM


KBTM - Bert Mooney

CURRENT METAR :
  • 211053Z AUTO 16011KT 10SM SCT025 BKN030 OVC035 03/00 A2974 RMK AO2 SLP070 T00280000

EXPIRED METARs :
  • 210953Z AUTO 16010KT 10SM OVC023 03/00 A2975 RMK AO2 SLP075 T00330000
  • 210902Z AUTO 15014KT 10SM BKN026 OVC034 03/00 A2975 RMK AO2 T00330000

TAF KBTM
Valid from the 21 at 12:00 until the 22 at 12:00 UTC


211120Z 2112/2212 19005KT P6SM BKN020 OVC050
FM211800 11010G18KT P6SM OVC050
FM212100 10020G35KT P6SM OVC050
FM220100 06010G18KT P6SM VCSH OVC050
KZLC FIR / North America



MET'MAP, your aeronautical weather chart ! - Copyright ORBIFLY December 2007 - Disclaimer

ORBIFLY MET'MAP TEAM :

Programming & Development : Alexandra Zaïnal
Concept & Development : Baudouin d'Aumeries
Co-Development & Prog : Marc-Olivier Méhu
Technical & hardware support : Manuel Goepfert

Contact : metmap@orbifly.com




SOURCES & CREDITS :

   NOAA       Earth
Advisory